sensor_id;sensor_type;location;lat;lon;timestamp;P1;durP1;ratioP1;P2;durP2;ratioP2
69912;SDS011;57198;52.082;5.108;2023-04-16T00:00:28;4.50;;;2.47;;
69912;SDS011;57198;52.082;5.108;2023-04-16T00:02:55;6.57;;;2.25;;
69912;SDS011;57198;52.082;5.108;2023-04-16T00:05:23;4.00;;;2.00;;
69912;SDS011;57198;52.082;5.108;2023-04-16T00:07:50;3.55;;;2.25;;
69912;SDS011;57198;52.082;5.108;2023-04-16T00:10:18;4.70;;;1.92;;
69912;SDS011;57198;52.082;5.108;2023-04-16T00:12:45;4.73;;;2.20;;
69912;SDS011;57198;52.082;5.108;2023-04-16T00:15:12;3.78;;;1.45;;
69912;SDS011;57198;52.082;5.108;2023-04-16T00:17:40;5.03;;;1.83;;
69912;SDS011;57198;52.082;5.108;2023-04-16T00:20:07;5.25;;;1.90;;
69912;SDS011;57198;52.082;5.108;2023-04-16T00:22:35;4.00;;;1.85;;
69912;SDS011;57198;52.082;5.108;2023-04-16T00:25:02;3.63;;;1.80;;
69912;SDS011;57198;52.082;5.108;2023-04-16T00:27:29;2.78;;;1.63;;
69912;SDS011;57198;52.082;5.108;2023-04-16T00:29:57;1.67;;;1.55;;
69912;SDS011;57198;52.082;5.108;2023-04-16T00:32:24;3.20;;;2.08;;
69912;SDS011;57198;52.082;5.108;2023-04-16T00:34:51;3.63;;;2.08;;
69912;SDS011;57198;52.082;5.108;2023-04-16T00:37:19;5.43;;;1.93;;
69912;SDS011;57198;52.082;5.108;2023-04-16T00:39:46;2.63;;;1.83;;
69912;SDS011;57198;52.082;5.108;2023-04-16T00:42:14;2.03;;;1.60;;
69912;SDS011;57198;52.082;5.108;2023-04-16T00:44:41;5.53;;;1.90;;
69912;SDS011;57198;52.082;5.108;2023-04-16T00:47:08;2.33;;;1.58;;
69912;SDS011;57198;52.082;5.108;2023-04-16T00:49:36;3.07;;;1.70;;
69912;SDS011;57198;52.082;5.108;2023-04-16T00:52:03;3.55;;;1.60;;
69912;SDS011;57198;52.082;5.108;2023-04-16T00:54:31;2.85;;;1.92;;
69912;SDS011;57198;52.082;5.108;2023-04-16T00:56:58;1.98;;;1.77;;
69912;SDS011;57198;52.082;5.108;2023-04-16T00:59:27;3.60;;;2.15;;
69912;SDS011;57198;52.082;5.108;2023-04-16T01:01:54;2.17;;;1.90;;
69912;SDS011;57198;52.082;5.108;2023-04-16T01:04:22;3.45;;;2.20;;
69912;SDS011;57198;52.082;5.108;2023-04-16T01:06:49;3.92;;;2.08;;
69912;SDS011;57198;52.082;5.108;2023-04-16T01:09:17;3.50;;;1.80;;
69912;SDS011;57198;52.082;5.108;2023-04-16T01:11:44;3.75;;;2.55;;
69912;SDS011;57198;52.082;5.108;2023-04-16T01:14:11;7.40;;;3.33;;
69912;SDS011;57198;52.082;5.108;2023-04-16T01:16:39;4.03;;;2.63;;
69912;SDS011;57198;52.082;5.108;2023-04-16T01:19:06;5.00;;;2.42;;
69912;SDS011;57198;52.082;5.108;2023-04-16T01:21:34;4.43;;;2.70;;
69912;SDS011;57198;52.082;5.108;2023-04-16T01:24:02;5.20;;;2.70;;
69912;SDS011;57198;52.082;5.108;2023-04-16T01:26:30;2.63;;;2.10;;
69912;SDS011;57198;52.082;5.108;2023-04-16T01:28:58;3.53;;;2.17;;
69912;SDS011;57198;52.082;5.108;2023-04-16T01:31:25;5.57;;;2.65;;
69912;SDS011;57198;52.082;5.108;2023-04-16T01:34:06;5.78;;;2.97;;
69912;SDS011;57198;52.082;5.108;2023-04-16T01:36:33;5.47;;;3.30;;
69912;SDS011;57198;52.082;5.108;2023-04-16T01:39:01;4.10;;;2.70;;
69912;SDS011;57198;52.082;5.108;2023-04-16T01:41:29;4.45;;;3.50;;
69912;SDS011;57198;52.082;5.108;2023-04-16T01:43:57;5.55;;;3.40;;
69912;SDS011;57198;52.082;5.108;2023-04-16T01:46:28;5.90;;;3.60;;
69912;SDS011;57198;52.082;5.108;2023-04-16T01:48:57;4.82;;;3.28;;
69912;SDS011;57198;52.082;5.108;2023-04-16T01:51:24;4.17;;;3.17;;
69912;SDS011;57198;52.082;5.108;2023-04-16T01:53:52;6.90;;;4.30;;
69912;SDS011;57198;52.082;5.108;2023-04-16T01:56:20;7.13;;;3.45;;
69912;SDS011;57198;52.082;5.108;2023-04-16T01:58:47;5.55;;;3.30;;
69912;SDS011;57198;52.082;5.108;2023-04-16T02:01:16;7.35;;;3.40;;
69912;SDS011;57198;52.082;5.108;2023-04-16T02:03:45;3.83;;;3.50;;
69912;SDS011;57198;52.082;5.108;2023-04-16T02:06:13;3.03;;;2.65;;
69912;SDS011;57198;52.082;5.108;2023-04-16T02:08:40;6.43;;;3.10;;
69912;SDS011;57198;52.082;5.108;2023-04-16T02:11:08;4.78;;;2.67;;
69912;SDS011;57198;52.082;5.108;2023-04-16T02:13:36;6.28;;;3.10;;
69912;SDS011;57198;52.082;5.108;2023-04-16T02:16:03;7.30;;;3.33;;
69912;SDS011;57198;52.082;5.108;2023-04-16T02:19:00;5.00;;;2.72;;
69912;SDS011;57198;52.082;5.108;2023-04-16T02:21:30;3.58;;;2.85;;
69912;SDS011;57198;52.082;5.108;2023-04-16T02:23:57;7.57;;;3.70;;
69912;SDS011;57198;52.082;5.108;2023-04-16T02:26:28;3.83;;;2.83;;
69912;SDS011;57198;52.082;5.108;2023-04-16T02:29:01;4.03;;;2.77;;
69912;SDS011;57198;52.082;5.108;2023-04-16T02:31:36;6.15;;;3.30;;
69912;SDS011;57198;52.082;5.108;2023-04-16T02:34:04;7.15;;;3.25;;
69912;SDS011;57198;52.082;5.108;2023-04-16T02:36:32;5.57;;;3.42;;
69912;SDS011;57198;52.082;5.108;2023-04-16T02:38:59;6.53;;;3.70;;
69912;SDS011;57198;52.082;5.108;2023-04-16T02:41:27;7.47;;;3.13;;
69912;SDS011;57198;52.082;5.108;2023-04-16T02:43:54;6.70;;;2.83;;
69912;SDS011;57198;52.082;5.108;2023-04-16T02:46:22;5.57;;;3.50;;
69912;SDS011;57198;52.082;5.108;2023-04-16T02:48:49;7.50;;;3.63;;
69912;SDS011;57198;52.082;5.108;2023-04-16T02:51:17;6.05;;;2.83;;
69912;SDS011;57198;52.082;5.108;2023-04-16T02:53:44;9.13;;;3.40;;
69912;SDS011;57198;52.082;5.108;2023-04-16T02:56:12;5.88;;;3.42;;
69912;SDS011;57198;52.082;5.108;2023-04-16T02:58:39;4.97;;;2.88;;
69912;SDS011;57198;52.082;5.108;2023-04-16T03:01:07;6.72;;;4.18;;
69912;SDS011;57198;52.082;5.108;2023-04-16T03:03:34;10.02;;;3.47;;
69912;SDS011;57198;52.082;5.108;2023-04-16T03:06:02;6.43;;;3.43;;
69912;SDS011;57198;52.082;5.108;2023-04-16T03:08:29;5.95;;;3.33;;
69912;SDS011;57198;52.082;5.108;2023-04-16T03:10:56;5.25;;;2.95;;
69912;SDS011;57198;52.082;5.108;2023-04-16T03:13:24;6.72;;;3.78;;
69912;SDS011;57198;52.082;5.108;2023-04-16T03:15:51;8.48;;;3.30;;
69912;SDS011;57198;52.082;5.108;2023-04-16T03:18:18;7.53;;;3.97;;
69912;SDS011;57198;52.082;5.108;2023-04-16T03:20:51;5.63;;;3.45;;
69912;SDS011;57198;52.082;5.108;2023-04-16T03:23:19;7.80;;;3.70;;
69912;SDS011;57198;52.082;5.108;2023-04-16T03:25:46;6.35;;;3.60;;
69912;SDS011;57198;52.082;5.108;2023-04-16T03:28:16;7.97;;;4.43;;
69912;SDS011;57198;52.082;5.108;2023-04-16T03:30:50;7.80;;;3.97;;
69912;SDS011;57198;52.082;5.108;2023-04-16T03:33:18;8.75;;;4.40;;
69912;SDS011;57198;52.082;5.108;2023-04-16T03:35:46;5.65;;;3.60;;
69912;SDS011;57198;52.082;5.108;2023-04-16T03:38:13;5.22;;;3.70;;
69912;SDS011;57198;52.082;5.108;2023-04-16T03:40:41;10.43;;;4.40;;
69912;SDS011;57198;52.082;5.108;2023-04-16T03:43:08;6.10;;;4.37;;
69912;SDS011;57198;52.082;5.108;2023-04-16T03:45:36;7.75;;;3.75;;
69912;SDS011;57198;52.082;5.108;2023-04-16T03:48:10;8.63;;;4.03;;
69912;SDS011;57198;52.082;5.108;2023-04-16T03:50:37;8.57;;;4.93;;
69912;SDS011;57198;52.082;5.108;2023-04-16T03:53:07;9.57;;;4.70;;
69912;SDS011;57198;52.082;5.108;2023-04-16T03:55:34;7.67;;;4.60;;
69912;SDS011;57198;52.082;5.108;2023-04-16T03:58:01;8.98;;;4.47;;
69912;SDS011;57198;52.082;5.108;2023-04-16T04:00:31;11.80;;;5.15;;
69912;SDS011;57198;52.082;5.108;2023-04-16T04:03:05;8.02;;;5.45;;
69912;SDS011;57198;52.082;5.108;2023-04-16T04:05:39;10.55;;;5.32;;
69912;SDS011;57198;52.082;5.108;2023-04-16T04:08:09;11.23;;;5.00;;
69912;SDS011;57198;52.082;5.108;2023-04-16T04:10:37;8.75;;;4.28;;
69912;SDS011;57198;52.082;5.108;2023-04-16T04:13:05;5.25;;;4.28;;
69912;SDS011;57198;52.082;5.108;2023-04-16T04:15:33;9.55;;;5.40;;
69912;SDS011;57198;52.082;5.108;2023-04-16T04:18:01;11.02;;;5.80;;
69912;SDS011;57198;52.082;5.108;2023-04-16T04:20:28;10.67;;;4.87;;
69912;SDS011;57198;52.082;5.108;2023-04-16T04:22:56;10.02;;;4.93;;
69912;SDS011;57198;52.082;5.108;2023-04-16T04:25:24;9.85;;;5.97;;
69912;SDS011;57198;52.082;5.108;2023-04-16T04:27:52;12.07;;;5.18;;
69912;SDS011;57198;52.082;5.108;2023-04-16T04:30:19;15.13;;;5.72;;
69912;SDS011;57198;52.082;5.108;2023-04-16T04:32:46;11.23;;;5.80;;
69912;SDS011;57198;52.082;5.108;2023-04-16T04:35:15;13.60;;;5.93;;
69912;SDS011;57198;52.082;5.108;2023-04-16T04:37:42;9.05;;;5.55;;
69912;SDS011;57198;52.082;5.108;2023-04-16T04:40:13;9.75;;;5.65;;
69912;SDS011;57198;52.082;5.108;2023-04-16T04:42:41;12.00;;;5.95;;
69912;SDS011;57198;52.082;5.108;2023-04-16T04:45:08;8.77;;;6.30;;
69912;SDS011;57198;52.082;5.108;2023-04-16T04:47:36;10.75;;;6.53;;
69912;SDS011;57198;52.082;5.108;2023-04-16T04:50:04;11.25;;;5.80;;
69912;SDS011;57198;52.082;5.108;2023-04-16T04:52:32;13.48;;;6.57;;
69912;SDS011;57198;52.082;5.108;2023-04-16T04:55:00;15.68;;;7.53;;
69912;SDS011;57198;52.082;5.108;2023-04-16T04:57:28;13.87;;;6.80;;
69912;SDS011;57198;52.082;5.108;2023-04-16T04:59:56;12.32;;;7.20;;
69912;SDS011;57198;52.082;5.108;2023-04-16T05:02:26;11.55;;;7.20;;
69912;SDS011;57198;52.082;5.108;2023-04-16T05:04:53;15.07;;;7.40;;
69912;SDS011;57198;52.082;5.108;2023-04-16T05:07:21;16.38;;;8.02;;
69912;SDS011;57198;52.082;5.108;2023-04-16T05:09:48;21.87;;;9.27;;
69912;SDS011;57198;52.082;5.108;2023-04-16T05:12:16;21.42;;;9.35;;
69912;SDS011;57198;52.082;5.108;2023-04-16T05:14:43;16.63;;;8.57;;
69912;SDS011;57198;52.082;5.108;2023-04-16T05:17:10;17.67;;;9.40;;
69912;SDS011;57198;52.082;5.108;2023-04-16T05:19:37;21.85;;;9.73;;
69912;SDS011;57198;52.082;5.108;2023-04-16T05:22:05;22.67;;;9.47;;
69912;SDS011;57198;52.082;5.108;2023-04-16T05:24:32;23.30;;;9.40;;
69912;SDS011;57198;52.082;5.108;2023-04-16T05:26:59;22.80;;;9.63;;
69912;SDS011;57198;52.082;5.108;2023-04-16T05:29:27;22.42;;;10.10;;
69912;SDS011;57198;52.082;5.108;2023-04-16T05:31:54;18.10;;;9.50;;
69912;SDS011;57198;52.082;5.108;2023-04-16T05:34:21;21.30;;;9.23;;
69912;SDS011;57198;52.082;5.108;2023-04-16T05:36:48;16.55;;;8.10;;
69912;SDS011;57198;52.082;5.108;2023-04-16T05:39:16;22.17;;;9.00;;
69912;SDS011;57198;52.082;5.108;2023-04-16T05:41:43;17.45;;;9.70;;
69912;SDS011;57198;52.082;5.108;2023-04-16T05:44:11;20.33;;;9.25;;
69912;SDS011;57198;52.082;5.108;2023-04-16T05:46:38;18.70;;;8.50;;
69912;SDS011;57198;52.082;5.108;2023-04-16T05:49:05;19.88;;;8.15;;
69912;SDS011;57198;52.082;5.108;2023-04-16T05:51:33;16.75;;;8.30;;
69912;SDS011;57198;52.082;5.108;2023-04-16T05:54:01;17.85;;;9.27;;
69912;SDS011;57198;52.082;5.108;2023-04-16T05:56:28;18.38;;;9.25;;
69912;SDS011;57198;52.082;5.108;2023-04-16T05:58:56;18.40;;;8.30;;
69912;SDS011;57198;52.082;5.108;2023-04-16T06:01:23;17.75;;;8.85;;
69912;SDS011;57198;52.082;5.108;2023-04-16T06:03:51;16.42;;;8.82;;
69912;SDS011;57198;52.082;5.108;2023-04-16T06:06:18;17.55;;;8.60;;
69912;SDS011;57198;52.082;5.108;2023-04-16T06:08:46;18.60;;;8.60;;
69912;SDS011;57198;52.082;5.108;2023-04-16T06:11:13;18.63;;;9.40;;
69912;SDS011;57198;52.082;5.108;2023-04-16T06:13:40;17.70;;;7.97;;
69912;SDS011;57198;52.082;5.108;2023-04-16T06:16:08;19.08;;;9.20;;
69912;SDS011;57198;52.082;5.108;2023-04-16T06:18:35;21.88;;;9.20;;
69912;SDS011;57198;52.082;5.108;2023-04-16T06:21:03;16.98;;;8.15;;
69912;SDS011;57198;52.082;5.108;2023-04-16T06:23:30;17.33;;;8.10;;
69912;SDS011;57198;52.082;5.108;2023-04-16T06:25:57;21.17;;;9.23;;
69912;SDS011;57198;52.082;5.108;2023-04-16T06:28:25;16.77;;;8.65;;
69912;SDS011;57198;52.082;5.108;2023-04-16T06:30:52;13.20;;;7.10;;
69912;SDS011;57198;52.082;5.108;2023-04-16T06:33:19;13.57;;;7.68;;
69912;SDS011;57198;52.082;5.108;2023-04-16T06:35:47;14.10;;;7.70;;
69912;SDS011;57198;52.082;5.108;2023-04-16T06:38:14;11.30;;;6.70;;
69912;SDS011;57198;52.082;5.108;2023-04-16T06:40:41;15.57;;;7.63;;
69912;SDS011;57198;52.082;5.108;2023-04-16T06:43:08;12.05;;;7.45;;
69912;SDS011;57198;52.082;5.108;2023-04-16T06:45:36;12.70;;;8.23;;
69912;SDS011;57198;52.082;5.108;2023-04-16T06:48:03;13.70;;;7.63;;
69912;SDS011;57198;52.082;5.108;2023-04-16T06:50:31;11.98;;;8.07;;
69912;SDS011;57198;52.082;5.108;2023-04-16T06:52:58;9.18;;;6.43;;
69912;SDS011;57198;52.082;5.108;2023-04-16T06:55:26;11.35;;;6.40;;
69912;SDS011;57198;52.082;5.108;2023-04-16T06:57:53;14.32;;;7.50;;
69912;SDS011;57198;52.082;5.108;2023-04-16T07:00:20;12.33;;;7.30;;
69912;SDS011;57198;52.082;5.108;2023-04-16T07:02:48;13.98;;;7.63;;
69912;SDS011;57198;52.082;5.108;2023-04-16T07:05:15;14.13;;;7.72;;
69912;SDS011;57198;52.082;5.108;2023-04-16T07:07:42;13.00;;;7.32;;
69912;SDS011;57198;52.082;5.108;2023-04-16T07:10:10;14.60;;;7.25;;
69912;SDS011;57198;52.082;5.108;2023-04-16T07:12:37;13.37;;;7.60;;
69912;SDS011;57198;52.082;5.108;2023-04-16T07:15:05;13.85;;;7.32;;
69912;SDS011;57198;52.082;5.108;2023-04-16T07:17:32;11.05;;;6.80;;
69912;SDS011;57198;52.082;5.108;2023-04-16T07:19:59;17.85;;;8.25;;
69912;SDS011;57198;52.082;5.108;2023-04-16T07:22:27;15.18;;;7.78;;
69912;SDS011;57198;52.082;5.108;2023-04-16T07:24:54;15.40;;;7.50;;
69912;SDS011;57198;52.082;5.108;2023-04-16T07:27:21;12.57;;;7.57;;
69912;SDS011;57198;52.082;5.108;2023-04-16T07:29:49;17.42;;;9.93;;
69912;SDS011;57198;52.082;5.108;2023-04-16T07:32:16;14.98;;;7.50;;
69912;SDS011;57198;52.082;5.108;2023-04-16T07:34:44;13.95;;;7.82;;
69912;SDS011;57198;52.082;5.108;2023-04-16T07:37:11;11.30;;;7.83;;
69912;SDS011;57198;52.082;5.108;2023-04-16T07:39:38;13.10;;;7.15;;
69912;SDS011;57198;52.082;5.108;2023-04-16T07:42:06;11.25;;;6.60;;
69912;SDS011;57198;52.082;5.108;2023-04-16T07:44:33;11.63;;;6.65;;
69912;SDS011;57198;52.082;5.108;2023-04-16T07:47:01;10.63;;;6.68;;
69912;SDS011;57198;52.082;5.108;2023-04-16T07:49:30;11.77;;;6.87;;
69912;SDS011;57198;52.082;5.108;2023-04-16T07:51:58;11.05;;;6.97;;
69912;SDS011;57198;52.082;5.108;2023-04-16T07:54:25;10.18;;;6.22;;
69912;SDS011;57198;52.082;5.108;2023-04-16T07:56:54;10.05;;;5.82;;
69912;SDS011;57198;52.082;5.108;2023-04-16T07:59:21;11.52;;;6.13;;
69912;SDS011;57198;52.082;5.108;2023-04-16T08:01:51;10.10;;;5.80;;
69912;SDS011;57198;52.082;5.108;2023-04-16T08:04:19;9.50;;;6.00;;
69912;SDS011;57198;52.082;5.108;2023-04-16T08:06:51;13.10;;;7.78;;
69912;SDS011;57198;52.082;5.108;2023-04-16T08:09:18;11.23;;;6.88;;
69912;SDS011;57198;52.082;5.108;2023-04-16T08:11:47;10.25;;;6.63;;
69912;SDS011;57198;52.082;5.108;2023-04-16T08:14:15;11.30;;;6.90;;
69912;SDS011;57198;52.082;5.108;2023-04-16T08:16:43;10.90;;;6.50;;
69912;SDS011;57198;52.082;5.108;2023-04-16T08:19:10;10.00;;;5.88;;
69912;SDS011;57198;52.082;5.108;2023-04-16T08:21:38;9.90;;;6.18;;
69912;SDS011;57198;52.082;5.108;2023-04-16T08:24:05;9.68;;;5.45;;
69912;SDS011;57198;52.082;5.108;2023-04-16T08:26:33;11.37;;;6.57;;
69912;SDS011;57198;52.082;5.108;2023-04-16T08:29:00;9.55;;;6.18;;
69912;SDS011;57198;52.082;5.108;2023-04-16T08:31:28;9.63;;;6.15;;
69912;SDS011;57198;52.082;5.108;2023-04-16T08:33:55;10.75;;;6.35;;
69912;SDS011;57198;52.082;5.108;2023-04-16T08:36:23;13.77;;;7.15;;
69912;SDS011;57198;52.082;5.108;2023-04-16T08:38:50;14.97;;;6.53;;
69912;SDS011;57198;52.082;5.108;2023-04-16T08:41:18;12.88;;;6.63;;
69912;SDS011;57198;52.082;5.108;2023-04-16T08:43:48;8.18;;;5.70;;
69912;SDS011;57198;52.082;5.108;2023-04-16T08:46:17;11.43;;;6.00;;
69912;SDS011;57198;52.082;5.108;2023-04-16T08:48:47;12.73;;;6.50;;
69912;SDS011;57198;52.082;5.108;2023-04-16T08:51:15;13.90;;;7.20;;
69912;SDS011;57198;52.082;5.108;2023-04-16T08:53:53;9.20;;;5.93;;
69912;SDS011;57198;52.082;5.108;2023-04-16T08:56:24;9.52;;;6.15;;
69912;SDS011;57198;52.082;5.108;2023-04-16T08:58:51;11.05;;;6.30;;
69912;SDS011;57198;52.082;5.108;2023-04-16T09:01:20;10.55;;;5.88;;
69912;SDS011;57198;52.082;5.108;2023-04-16T09:03:48;11.83;;;6.40;;
69912;SDS011;57198;52.082;5.108;2023-04-16T09:06:16;8.55;;;5.88;;
69912;SDS011;57198;52.082;5.108;2023-04-16T09:08:43;14.15;;;6.63;;
69912;SDS011;57198;52.082;5.108;2023-04-16T09:11:16;15.95;;;5.80;;
69912;SDS011;57198;52.082;5.108;2023-04-16T09:13:44;12.05;;;6.15;;
69912;SDS011;57198;52.082;5.108;2023-04-16T09:16:12;8.87;;;5.93;;
69912;SDS011;57198;52.082;5.108;2023-04-16T09:18:40;7.05;;;5.88;;
69912;SDS011;57198;52.082;5.108;2023-04-16T09:21:10;11.45;;;6.35;;
69912;SDS011;57198;52.082;5.108;2023-04-16T09:23:38;8.88;;;5.55;;
69912;SDS011;57198;52.082;5.108;2023-04-16T09:26:06;8.73;;;6.65;;
69912;SDS011;57198;52.082;5.108;2023-04-16T09:28:40;7.80;;;5.60;;
69912;SDS011;57198;52.082;5.108;2023-04-16T09:33:38;8.43;;;5.22;;
69912;SDS011;57198;52.082;5.108;2023-04-16T09:36:06;8.98;;;5.22;;
69912;SDS011;57198;52.082;5.108;2023-04-16T09:38:44;9.60;;;5.32;;
69912;SDS011;57198;52.082;5.108;2023-04-16T09:41:13;7.20;;;4.97;;
69912;SDS011;57198;52.082;5.108;2023-04-16T09:48:57;6.90;;;4.68;;
69912;SDS011;57198;52.082;5.108;2023-04-16T09:51:24;7.53;;;4.72;;
69912;SDS011;57198;52.082;5.108;2023-04-16T09:53:52;6.83;;;5.63;;
69912;SDS011;57198;52.082;5.108;2023-04-16T09:56:22;6.47;;;5.38;;
69912;SDS011;57198;52.082;5.108;2023-04-16T09:58:55;7.97;;;4.63;;
69912;SDS011;57198;52.082;5.108;2023-04-16T10:01:23;6.40;;;5.00;;
69912;SDS011;57198;52.082;5.108;2023-04-16T10:03:52;8.38;;;5.15;;
69912;SDS011;57198;52.082;5.108;2023-04-16T10:06:21;7.43;;;5.70;;
69912;SDS011;57198;52.082;5.108;2023-04-16T10:08:49;8.65;;;5.35;;
69912;SDS011;57198;52.082;5.108;2023-04-16T10:11:17;8.98;;;5.63;;
69912;SDS011;57198;52.082;5.108;2023-04-16T10:13:45;9.55;;;4.72;;
69912;SDS011;57198;52.082;5.108;2023-04-16T10:16:13;7.70;;;5.28;;
69912;SDS011;57198;52.082;5.108;2023-04-16T10:18:41;9.00;;;4.77;;
69912;SDS011;57198;52.082;5.108;2023-04-16T10:21:09;6.13;;;4.78;;
69912;SDS011;57198;52.082;5.108;2023-04-16T10:23:41;5.28;;;4.78;;
69912;SDS011;57198;52.082;5.108;2023-04-16T10:26:09;6.50;;;4.95;;
69912;SDS011;57198;52.082;5.108;2023-04-16T10:28:36;6.95;;;4.82;;
69912;SDS011;57198;52.082;5.108;2023-04-16T10:31:04;6.67;;;4.77;;
69912;SDS011;57198;52.082;5.108;2023-04-16T10:33:34;5.30;;;4.72;;
69912;SDS011;57198;52.082;5.108;2023-04-16T10:36:21;7.07;;;5.10;;
69912;SDS011;57198;52.082;5.108;2023-04-16T10:38:49;7.00;;;6.30;;
69912;SDS011;57198;52.082;5.108;2023-04-16T10:41:20;7.30;;;6.05;;
69912;SDS011;57198;52.082;5.108;2023-04-16T10:43:50;7.60;;;5.83;;
69912;SDS011;57198;52.082;5.108;2023-04-16T10:48:54;10.02;;;6.45;;
69912;SDS011;57198;52.082;5.108;2023-04-16T10:51:32;9.18;;;6.28;;
69912;SDS011;57198;52.082;5.108;2023-04-16T10:56:31;9.63;;;5.80;;
69912;SDS011;57198;52.082;5.108;2023-04-16T10:58:59;10.85;;;6.72;;
69912;SDS011;57198;52.082;5.108;2023-04-16T11:01:30;11.35;;;7.45;;
69912;SDS011;57198;52.082;5.108;2023-04-16T11:03:58;12.13;;;6.50;;
69912;SDS011;57198;52.082;5.108;2023-04-16T11:06:27;13.27;;;6.95;;
69912;SDS011;57198;52.082;5.108;2023-04-16T11:08:55;8.43;;;6.10;;
69912;SDS011;57198;52.082;5.108;2023-04-16T11:11:22;10.70;;;7.32;;
69912;SDS011;57198;52.082;5.108;2023-04-16T11:13:52;11.65;;;6.80;;
69912;SDS011;57198;52.082;5.108;2023-04-16T11:16:20;12.85;;;7.57;;
69912;SDS011;57198;52.082;5.108;2023-04-16T11:18:48;13.43;;;7.50;;
69912;SDS011;57198;52.082;5.108;2023-04-16T11:21:17;9.67;;;7.93;;
69912;SDS011;57198;52.082;5.108;2023-04-16T11:23:48;19.33;;;7.60;;
69912;SDS011;57198;52.082;5.108;2023-04-16T11:26:22;17.15;;;7.88;;
69912;SDS011;57198;52.082;5.108;2023-04-16T11:28:50;14.63;;;8.07;;
69912;SDS011;57198;52.082;5.108;2023-04-16T11:31:17;12.18;;;8.05;;
69912;SDS011;57198;52.082;5.108;2023-04-16T11:33:45;13.70;;;8.00;;
69912;SDS011;57198;52.082;5.108;2023-04-16T11:36:12;14.23;;;8.13;;
69912;SDS011;57198;52.082;5.108;2023-04-16T11:38:39;15.25;;;7.97;;
69912;SDS011;57198;52.082;5.108;2023-04-16T11:41:08;12.02;;;7.13;;
69912;SDS011;57198;52.082;5.108;2023-04-16T11:43:36;14.82;;;8.10;;
69912;SDS011;57198;52.082;5.108;2023-04-16T11:46:04;15.57;;;8.50;;
69912;SDS011;57198;52.082;5.108;2023-04-16T11:48:50;11.85;;;7.72;;
69912;SDS011;57198;52.082;5.108;2023-04-16T11:51:18;15.25;;;7.45;;
69912;SDS011;57198;52.082;5.108;2023-04-16T11:53:47;13.55;;;7.55;;
69912;SDS011;57198;52.082;5.108;2023-04-16T11:56:15;12.85;;;7.97;;
69912;SDS011;57198;52.082;5.108;2023-04-16T11:59:10;14.00;;;7.63;;
69912;SDS011;57198;52.082;5.108;2023-04-16T12:01:39;19.17;;;8.80;;
69912;SDS011;57198;52.082;5.108;2023-04-16T12:04:06;11.98;;;7.30;;
69912;SDS011;57198;52.082;5.108;2023-04-16T12:06:35;17.48;;;8.48;;
69912;SDS011;57198;52.082;5.108;2023-04-16T12:09:21;16.40;;;8.80;;
69912;SDS011;57198;52.082;5.108;2023-04-16T12:11:49;14.03;;;8.37;;
69912;SDS011;57198;52.082;5.108;2023-04-16T12:14:16;16.40;;;8.52;;
69912;SDS011;57198;52.082;5.108;2023-04-16T12:16:44;18.17;;;8.52;;
69912;SDS011;57198;52.082;5.108;2023-04-16T12:19:11;15.13;;;8.43;;
69912;SDS011;57198;52.082;5.108;2023-04-16T12:21:42;15.48;;;8.25;;
69912;SDS011;57198;52.082;5.108;2023-04-16T12:24:11;19.17;;;8.37;;
69912;SDS011;57198;52.082;5.108;2023-04-16T12:26:40;18.17;;;8.70;;
69912;SDS011;57198;52.082;5.108;2023-04-16T12:29:18;16.85;;;7.72;;
69912;SDS011;57198;52.082;5.108;2023-04-16T12:31:46;17.80;;;8.73;;
69912;SDS011;57198;52.082;5.108;2023-04-16T12:34:14;15.50;;;8.50;;
69912;SDS011;57198;52.082;5.108;2023-04-16T12:36:43;18.27;;;9.37;;
69912;SDS011;57198;52.082;5.108;2023-04-16T12:39:11;15.65;;;9.20;;
69912;SDS011;57198;52.082;5.108;2023-04-16T12:41:39;15.85;;;9.13;;
69912;SDS011;57198;52.082;5.108;2023-04-16T12:44:08;15.00;;;8.20;;
69912;SDS011;57198;52.082;5.108;2023-04-16T12:46:37;14.15;;;8.65;;
69912;SDS011;57198;52.082;5.108;2023-04-16T12:49:05;15.67;;;7.97;;
69912;SDS011;57198;52.082;5.108;2023-04-16T12:51:33;17.42;;;9.20;;
69912;SDS011;57198;52.082;5.108;2023-04-16T12:54:01;15.35;;;8.27;;
69912;SDS011;57198;52.082;5.108;2023-04-16T12:56:29;14.82;;;8.27;;
69912;SDS011;57198;52.082;5.108;2023-04-16T12:58:56;13.18;;;7.72;;
69912;SDS011;57198;52.082;5.108;2023-04-16T13:01:24;16.27;;;8.63;;
69912;SDS011;57198;52.082;5.108;2023-04-16T13:03:52;15.43;;;8.27;;
69912;SDS011;57198;52.082;5.108;2023-04-16T13:06:20;13.45;;;7.85;;
69912;SDS011;57198;52.082;5.108;2023-04-16T13:08:48;14.15;;;7.82;;
69912;SDS011;57198;52.082;5.108;2023-04-16T13:11:16;14.25;;;7.93;;
69912;SDS011;57198;52.082;5.108;2023-04-16T13:13:44;13.20;;;8.07;;
69912;SDS011;57198;52.082;5.108;2023-04-16T13:16:12;16.67;;;8.68;;
69912;SDS011;57198;52.082;5.108;2023-04-16T13:18:40;18.77;;;8.70;;
69912;SDS011;57198;52.082;5.108;2023-04-16T13:21:07;15.82;;;9.55;;
69912;SDS011;57198;52.082;5.108;2023-04-16T13:23:34;13.57;;;8.65;;
69912;SDS011;57198;52.082;5.108;2023-04-16T13:26:01;15.03;;;8.23;;
69912;SDS011;57198;52.082;5.108;2023-04-16T13:28:29;15.95;;;8.68;;
69912;SDS011;57198;52.082;5.108;2023-04-16T13:30:56;14.27;;;8.73;;
69912;SDS011;57198;52.082;5.108;2023-04-16T13:33:24;19.77;;;8.43;;
69912;SDS011;57198;52.082;5.108;2023-04-16T13:35:51;14.43;;;7.30;;
69912;SDS011;57198;52.082;5.108;2023-04-16T13:38:19;14.30;;;8.73;;
69912;SDS011;57198;52.082;5.108;2023-04-16T13:40:46;15.88;;;9.82;;
69912;SDS011;57198;52.082;5.108;2023-04-16T13:43:13;14.15;;;8.23;;
69912;SDS011;57198;52.082;5.108;2023-04-16T13:45:44;13.70;;;8.60;;
69912;SDS011;57198;52.082;5.108;2023-04-16T13:48:11;13.27;;;8.52;;
69912;SDS011;57198;52.082;5.108;2023-04-16T13:50:38;13.37;;;9.17;;
69912;SDS011;57198;52.082;5.108;2023-04-16T13:53:06;13.75;;;7.90;;
69912;SDS011;57198;52.082;5.108;2023-04-16T13:55:33;12.48;;;8.73;;
69912;SDS011;57198;52.082;5.108;2023-04-16T13:58:01;12.88;;;7.93;;
69912;SDS011;57198;52.082;5.108;2023-04-16T14:00:28;13.77;;;8.88;;
69912;SDS011;57198;52.082;5.108;2023-04-16T14:02:56;13.20;;;8.23;;
69912;SDS011;57198;52.082;5.108;2023-04-16T14:05:24;14.77;;;8.88;;
69912;SDS011;57198;52.082;5.108;2023-04-16T14:07:52;14.88;;;8.55;;
69912;SDS011;57198;52.082;5.108;2023-04-16T14:10:19;19.65;;;8.18;;
69912;SDS011;57198;52.082;5.108;2023-04-16T14:12:47;14.02;;;8.18;;
69912;SDS011;57198;52.082;5.108;2023-04-16T14:15:14;17.83;;;8.47;;
69912;SDS011;57198;52.082;5.108;2023-04-16T14:17:42;17.90;;;9.27;;
69912;SDS011;57198;52.082;5.108;2023-04-16T14:20:10;16.17;;;8.77;;
69912;SDS011;57198;52.082;5.108;2023-04-16T14:22:38;19.90;;;9.23;;
69912;SDS011;57198;52.082;5.108;2023-04-16T14:25:07;16.23;;;9.18;;
69912;SDS011;57198;52.082;5.108;2023-04-16T14:27:34;13.77;;;8.87;;
69912;SDS011;57198;52.082;5.108;2023-04-16T14:30:02;14.77;;;9.70;;
69912;SDS011;57198;52.082;5.108;2023-04-16T14:32:30;15.00;;;8.60;;
69912;SDS011;57198;52.082;5.108;2023-04-16T14:34:57;15.23;;;8.38;;
69912;SDS011;57198;52.082;5.108;2023-04-16T14:37:25;16.70;;;8.77;;
69912;SDS011;57198;52.082;5.108;2023-04-16T14:39:52;18.70;;;9.90;;
69912;SDS011;57198;52.082;5.108;2023-04-16T14:42:19;14.40;;;9.15;;
69912;SDS011;57198;52.082;5.108;2023-04-16T14:44:47;13.63;;;9.00;;
69912;SDS011;57198;52.082;5.108;2023-04-16T14:47:15;15.35;;;9.38;;
69912;SDS011;57198;52.082;5.108;2023-04-16T14:49:42;19.60;;;11.82;;
69912;SDS011;57198;52.082;5.108;2023-04-16T14:52:09;14.57;;;8.53;;
69912;SDS011;57198;52.082;5.108;2023-04-16T14:54:37;17.15;;;10.10;;
69912;SDS011;57198;52.082;5.108;2023-04-16T14:57:05;26.20;;;17.55;;
69912;SDS011;57198;52.082;5.108;2023-04-16T14:59:32;19.08;;;10.48;;